sensor_id;sensor_type;location;lat;lon;timestamp;P1;durP1;ratioP1;P2;durP2;ratioP2
52396;SDS011;38322;53.108;6.308;2023-02-10T06:01:29;29.80;;;7.40;;
52396;SDS011;38322;53.108;6.308;2023-02-10T06:03:55;20.63;;;8.05;;
52396;SDS011;38322;53.108;6.308;2023-02-10T06:06:21;20.75;;;8.48;;
52396;SDS011;38322;53.108;6.308;2023-02-10T06:08:47;19.92;;;9.32;;
52396;SDS011;38322;53.108;6.308;2023-02-10T06:11:13;23.10;;;8.48;;
52396;SDS011;38322;53.108;6.308;2023-02-10T06:13:39;18.75;;;7.88;;
52396;SDS011;38322;53.108;6.308;2023-02-10T06:16:05;25.15;;;7.63;;
52396;SDS011;38322;53.108;6.308;2023-02-10T06:18:32;26.00;;;7.97;;
52396;SDS011;38322;53.108;6.308;2023-02-10T06:20:58;20.85;;;8.43;;
52396;SDS011;38322;53.108;6.308;2023-02-10T06:23:25;23.00;;;9.30;;
52396;SDS011;38322;53.108;6.308;2023-02-10T06:25:51;33.88;;;9.57;;
52396;SDS011;38322;53.108;6.308;2023-02-10T06:28:21;23.55;;;7.53;;
52396;SDS011;38322;53.108;6.308;2023-02-10T06:30:48;25.98;;;7.75;;
52396;SDS011;38322;53.108;6.308;2023-02-10T06:33:14;27.60;;;7.82;;
52396;SDS011;38322;53.108;6.308;2023-02-10T06:35:40;25.48;;;7.43;;
52396;SDS011;38322;53.108;6.308;2023-02-10T06:38:05;23.45;;;9.18;;
52396;SDS011;38322;53.108;6.308;2023-02-10T06:40:31;23.67;;;7.85;;
52396;SDS011;38322;53.108;6.308;2023-02-10T06:42:57;21.50;;;9.02;;
52396;SDS011;38322;53.108;6.308;2023-02-10T06:45:23;20.55;;;8.30;;
52396;SDS011;38322;53.108;6.308;2023-02-10T06:47:49;19.30;;;8.48;;
52396;SDS011;38322;53.108;6.308;2023-02-10T06:50:15;20.30;;;9.10;;
52396;SDS011;38322;53.108;6.308;2023-02-10T06:52:42;24.95;;;8.13;;
52396;SDS011;38322;53.108;6.308;2023-02-10T06:55:09;29.70;;;9.48;;
52396;SDS011;38322;53.108;6.308;2023-02-10T06:57:35;22.83;;;10.38;;
52396;SDS011;38322;53.108;6.308;2023-02-10T07:00:03;22.83;;;7.72;;
52396;SDS011;38322;53.108;6.308;2023-02-10T07:02:32;17.23;;;8.15;;
52396;SDS011;38322;53.108;6.308;2023-02-10T07:04:59;31.27;;;8.75;;
52396;SDS011;38322;53.108;6.308;2023-02-10T07:07:25;22.05;;;10.05;;
52396;SDS011;38322;53.108;6.308;2023-02-10T07:09:51;28.35;;;8.77;;
52396;SDS011;38322;53.108;6.308;2023-02-10T07:12:18;27.40;;;11.65;;
52396;SDS011;38322;53.108;6.308;2023-02-10T07:14:45;25.00;;;8.60;;
52396;SDS011;38322;53.108;6.308;2023-02-10T07:17:11;17.67;;;11.55;;
52396;SDS011;38322;53.108;6.308;2023-02-10T07:19:37;23.60;;;9.82;;
52396;SDS011;38322;53.108;6.308;2023-02-10T07:22:03;26.63;;;11.15;;
52396;SDS011;38322;53.108;6.308;2023-02-10T07:24:32;23.92;;;9.38;;
52396;SDS011;38322;53.108;6.308;2023-02-10T07:26:58;24.15;;;9.48;;
52396;SDS011;38322;53.108;6.308;2023-02-10T07:29:24;24.42;;;10.05;;
52396;SDS011;38322;53.108;6.308;2023-02-10T07:31:50;19.17;;;8.88;;
52396;SDS011;38322;53.108;6.308;2023-02-10T07:34:16;23.52;;;11.52;;
52396;SDS011;38322;53.108;6.308;2023-02-10T07:36:44;21.58;;;10.18;;
52396;SDS011;38322;53.108;6.308;2023-02-10T07:39:10;26.25;;;9.57;;
52396;SDS011;38322;53.108;6.308;2023-02-10T07:41:37;22.35;;;9.38;;
52396;SDS011;38322;53.108;6.308;2023-02-10T07:44:03;19.38;;;9.88;;
52396;SDS011;38322;53.108;6.308;2023-02-10T07:46:29;20.60;;;9.57;;
52396;SDS011;38322;53.108;6.308;2023-02-10T07:48:54;24.40;;;9.90;;
52396;SDS011;38322;53.108;6.308;2023-02-10T07:51:20;24.13;;;9.35;;
52396;SDS011;38322;53.108;6.308;2023-02-10T07:53:46;25.92;;;9.68;;
52396;SDS011;38322;53.108;6.308;2023-02-10T07:56:12;22.15;;;9.40;;
52396;SDS011;38322;53.108;6.308;2023-02-10T07:58:38;25.15;;;10.60;;
52396;SDS011;38322;53.108;6.308;2023-02-10T08:01:05;25.40;;;9.98;;
52396;SDS011;38322;53.108;6.308;2023-02-10T08:03:32;27.15;;;11.05;;
52396;SDS011;38322;53.108;6.308;2023-02-10T08:05:58;18.95;;;9.60;;
52396;SDS011;38322;53.108;6.308;2023-02-10T08:08:24;22.90;;;11.30;;
52396;SDS011;38322;53.108;6.308;2023-02-10T08:10:50;30.33;;;10.77;;
52396;SDS011;38322;53.108;6.308;2023-02-10T08:13:16;21.95;;;11.45;;
52396;SDS011;38322;53.108;6.308;2023-02-10T08:15:43;23.20;;;9.93;;
52396;SDS011;38322;53.108;6.308;2023-02-10T08:18:08;23.17;;;9.73;;
52396;SDS011;38322;53.108;6.308;2023-02-10T08:20:34;21.00;;;10.63;;
52396;SDS011;38322;53.108;6.308;2023-02-10T08:23:00;27.23;;;12.52;;
52396;SDS011;38322;53.108;6.308;2023-02-10T08:25:26;22.75;;;9.95;;
52396;SDS011;38322;53.108;6.308;2023-02-10T08:27:53;21.17;;;10.07;;
52396;SDS011;38322;53.108;6.308;2023-02-10T08:30:19;18.88;;;10.77;;
52396;SDS011;38322;53.108;6.308;2023-02-10T08:32:45;27.77;;;12.88;;
52396;SDS011;38322;53.108;6.308;2023-02-10T08:35:11;24.25;;;9.93;;
52396;SDS011;38322;53.108;6.308;2023-02-10T08:37:37;26.77;;;11.65;;
52396;SDS011;38322;53.108;6.308;2023-02-10T08:40:03;22.55;;;10.77;;
52396;SDS011;38322;53.108;6.308;2023-02-10T08:42:31;29.02;;;10.60;;
52396;SDS011;38322;53.108;6.308;2023-02-10T08:44:57;22.98;;;9.32;;
52396;SDS011;38322;53.108;6.308;2023-02-10T08:47:23;24.38;;;11.52;;
52396;SDS011;38322;53.108;6.308;2023-02-10T08:49:49;22.10;;;9.95;;
52396;SDS011;38322;53.108;6.308;2023-02-10T08:52:15;18.95;;;10.38;;
52396;SDS011;38322;53.108;6.308;2023-02-10T08:54:42;19.63;;;9.43;;
52396;SDS011;38322;53.108;6.308;2023-02-10T08:57:08;16.35;;;9.18;;
52396;SDS011;38322;53.108;6.308;2023-02-10T08:59:35;23.80;;;10.27;;
52396;SDS011;38322;53.108;6.308;2023-02-10T09:02:01;19.65;;;9.95;;
52396;SDS011;38322;53.108;6.308;2023-02-10T09:04:27;22.38;;;9.38;;
52396;SDS011;38322;53.108;6.308;2023-02-10T09:06:53;20.15;;;11.20;;
52396;SDS011;38322;53.108;6.308;2023-02-10T09:09:20;28.48;;;12.57;;
52396;SDS011;38322;53.108;6.308;2023-02-10T09:11:50;19.17;;;10.00;;
52396;SDS011;38322;53.108;6.308;2023-02-10T09:14:17;18.30;;;10.35;;
52396;SDS011;38322;53.108;6.308;2023-02-10T09:16:43;26.73;;;13.38;;
52396;SDS011;38322;53.108;6.308;2023-02-10T09:19:08;34.35;;;11.20;;
52396;SDS011;38322;53.108;6.308;2023-02-10T09:21:34;27.75;;;12.23;;
52396;SDS011;38322;53.108;6.308;2023-02-10T09:24:00;23.90;;;11.60;;
52396;SDS011;38322;53.108;6.308;2023-02-10T09:26:26;21.17;;;10.10;;
52396;SDS011;38322;53.108;6.308;2023-02-10T09:28:52;25.52;;;10.88;;
52396;SDS011;38322;53.108;6.308;2023-02-10T09:31:18;27.17;;;9.60;;
52396;SDS011;38322;53.108;6.308;2023-02-10T09:33:44;25.75;;;11.65;;
52396;SDS011;38322;53.108;6.308;2023-02-10T09:36:12;22.20;;;12.10;;
52396;SDS011;38322;53.108;6.308;2023-02-10T09:38:41;24.63;;;11.15;;
52396;SDS011;38322;53.108;6.308;2023-02-10T09:43:52;20.48;;;9.00;;
52396;SDS011;38322;53.108;6.308;2023-02-10T09:46:44;28.05;;;11.60;;
52396;SDS011;38322;53.108;6.308;2023-02-10T09:54:32;30.73;;;11.50;;
52396;SDS011;38322;53.108;6.308;2023-02-10T09:57:03;18.63;;;10.07;;
52396;SDS011;38322;53.108;6.308;2023-02-10T09:59:30;31.77;;;13.40;;
52396;SDS011;38322;53.108;6.308;2023-02-10T10:02:01;25.10;;;11.43;;
52396;SDS011;38322;53.108;6.308;2023-02-10T10:04:42;26.08;;;11.05;;
52396;SDS011;38322;53.108;6.308;2023-02-10T10:09:35;32.28;;;13.55;;
52396;SDS011;38322;53.108;6.308;2023-02-10T10:12:16;35.20;;;13.68;;
52396;SDS011;38322;53.108;6.308;2023-02-10T10:14:43;25.58;;;11.07;;
52396;SDS011;38322;53.108;6.308;2023-02-10T10:20:15;34.80;;;13.63;;
52396;SDS011;38322;53.108;6.308;2023-02-10T10:25:36;26.20;;;13.43;;
52396;SDS011;38322;53.108;6.308;2023-02-10T10:31:01;28.35;;;13.02;;
52396;SDS011;38322;53.108;6.308;2023-02-10T10:33:38;24.80;;;12.00;;
52396;SDS011;38322;53.108;6.308;2023-02-10T10:36:15;27.58;;;12.32;;
52396;SDS011;38322;53.108;6.308;2023-02-10T10:38:47;26.92;;;10.98;;
52396;SDS011;38322;53.108;6.308;2023-02-10T10:41:16;24.85;;;12.05;;
52396;SDS011;38322;53.108;6.308;2023-02-10T10:43:44;25.67;;;12.15;;
52396;SDS011;38322;53.108;6.308;2023-02-10T10:46:21;22.00;;;10.00;;
52396;SDS011;38322;53.108;6.308;2023-02-10T10:48:49;22.45;;;11.02;;
52396;SDS011;38322;53.108;6.308;2023-02-10T10:51:15;21.45;;;9.63;;
52396;SDS011;38322;53.108;6.308;2023-02-10T10:53:47;24.08;;;8.52;;
52396;SDS011;38322;53.108;6.308;2023-02-10T10:58:45;23.83;;;10.43;;
52396;SDS011;38322;53.108;6.308;2023-02-10T11:01:13;26.15;;;11.63;;
52396;SDS011;38322;53.108;6.308;2023-02-10T11:04:02;25.52;;;10.50;;
52396;SDS011;38322;53.108;6.308;2023-02-10T11:06:33;32.28;;;11.38;;
52396;SDS011;38322;53.108;6.308;2023-02-10T11:09:02;24.35;;;9.27;;
52396;SDS011;38322;53.108;6.308;2023-02-10T11:11:36;23.70;;;9.63;;
52396;SDS011;38322;53.108;6.308;2023-02-10T11:14:12;18.77;;;8.95;;
52396;SDS011;38322;53.108;6.308;2023-02-10T11:16:52;21.13;;;8.75;;
52396;SDS011;38322;53.108;6.308;2023-02-10T11:19:23;21.48;;;8.77;;
52396;SDS011;38322;53.108;6.308;2023-02-10T11:21:52;26.10;;;8.77;;
52396;SDS011;38322;53.108;6.308;2023-02-10T11:24:20;23.02;;;8.43;;
52396;SDS011;38322;53.108;6.308;2023-02-10T11:26:56;22.35;;;9.65;;
52396;SDS011;38322;53.108;6.308;2023-02-10T11:29:32;23.85;;;8.23;;
52396;SDS011;38322;53.108;6.308;2023-02-10T11:32:00;28.55;;;8.80;;
52396;SDS011;38322;53.108;6.308;2023-02-10T11:34:37;24.08;;;7.95;;
52396;SDS011;38322;53.108;6.308;2023-02-10T11:37:09;20.80;;;7.90;;
52396;SDS011;38322;53.108;6.308;2023-02-10T11:39:38;16.58;;;7.97;;
52396;SDS011;38322;53.108;6.308;2023-02-10T11:42:16;17.35;;;7.32;;
52396;SDS011;38322;53.108;6.308;2023-02-10T11:44:53;15.48;;;8.23;;
52396;SDS011;38322;53.108;6.308;2023-02-10T11:47:19;19.45;;;9.55;;
52396;SDS011;38322;53.108;6.308;2023-02-10T11:49:46;17.35;;;7.18;;
52396;SDS011;38322;53.108;6.308;2023-02-10T11:52:14;20.23;;;7.43;;
52396;SDS011;38322;53.108;6.308;2023-02-10T11:54:44;20.67;;;6.50;;
52396;SDS011;38322;53.108;6.308;2023-02-10T12:00:22;38.03;;;9.45;;
52396;SDS011;38322;53.108;6.308;2023-02-10T12:08:33;19.75;;;7.15;;
52396;SDS011;38322;53.108;6.308;2023-02-10T12:19:02;19.65;;;6.30;;
52396;SDS011;38322;53.108;6.308;2023-02-10T12:27:19;17.67;;;5.97;;
52396;SDS011;38322;53.108;6.308;2023-02-10T12:29:53;11.35;;;5.22;;
52396;SDS011;38322;53.108;6.308;2023-02-10T12:32:58;26.40;;;7.55;;
52396;SDS011;38322;53.108;6.308;2023-02-10T12:35:36;13.20;;;5.38;;
52396;SDS011;38322;53.108;6.308;2023-02-10T12:38:22;11.32;;;5.00;;
52396;SDS011;38322;53.108;6.308;2023-02-10T12:43:37;18.30;;;5.88;;
52396;SDS011;38322;53.108;6.308;2023-02-10T12:46:17;13.52;;;5.45;;
52396;SDS011;38322;53.108;6.308;2023-02-10T12:49:06;18.13;;;6.28;;
52396;SDS011;38322;53.108;6.308;2023-02-10T12:57:10;20.33;;;6.85;;
52396;SDS011;38322;53.108;6.308;2023-02-10T13:02:44;15.57;;;5.10;;
52396;SDS011;38322;53.108;6.308;2023-02-10T13:05:18;15.55;;;5.05;;
52396;SDS011;38322;53.108;6.308;2023-02-10T13:07:50;15.40;;;4.53;;
52396;SDS011;38322;53.108;6.308;2023-02-10T13:10:20;17.52;;;4.68;;
52396;SDS011;38322;53.108;6.308;2023-02-10T13:12:56;12.93;;;4.75;;
52396;SDS011;38322;53.108;6.308;2023-02-10T13:15:29;12.65;;;6.53;;
52396;SDS011;38322;53.108;6.308;2023-02-10T13:18:00;9.65;;;4.45;;
52396;SDS011;38322;53.108;6.308;2023-02-10T13:20:39;11.65;;;5.35;;
52396;SDS011;38322;53.108;6.308;2023-02-10T13:23:24;13.68;;;3.80;;
52396;SDS011;38322;53.108;6.308;2023-02-10T13:26:02;15.18;;;3.72;;
52396;SDS011;38322;53.108;6.308;2023-02-10T13:31:29;19.83;;;3.97;;
52396;SDS011;38322;53.108;6.308;2023-02-10T13:34:17;15.65;;;3.95;;
52396;SDS011;38322;53.108;6.308;2023-02-10T13:36:44;9.93;;;3.17;;
52396;SDS011;38322;53.108;6.308;2023-02-10T13:39:16;11.15;;;3.47;;
52396;SDS011;38322;53.108;6.308;2023-02-10T13:41:46;9.68;;;2.83;;
52396;SDS011;38322;53.108;6.308;2023-02-10T13:44:22;14.50;;;3.25;;
52396;SDS011;38322;53.108;6.308;2023-02-10T13:46:54;13.20;;;2.95;;
52396;SDS011;38322;53.108;6.308;2023-02-10T13:49:24;20.45;;;4.25;;
52396;SDS011;38322;53.108;6.308;2023-02-10T13:51:58;12.85;;;4.30;;
52396;SDS011;38322;53.108;6.308;2023-02-10T13:54:29;14.07;;;4.70;;
52396;SDS011;38322;53.108;6.308;2023-02-10T13:56:57;12.82;;;4.82;;
52396;SDS011;38322;53.108;6.308;2023-02-10T13:59:26;12.52;;;3.90;;
52396;SDS011;38322;53.108;6.308;2023-02-10T14:04:44;20.10;;;5.93;;
52396;SDS011;38322;53.108;6.308;2023-02-10T14:07:13;19.27;;;4.30;;
52396;SDS011;38322;53.108;6.308;2023-02-10T14:12:30;17.60;;;5.32;;
52396;SDS011;38322;53.108;6.308;2023-02-10T14:15:12;19.92;;;6.05;;
52396;SDS011;38322;53.108;6.308;2023-02-10T14:17:52;15.48;;;5.13;;
52396;SDS011;38322;53.108;6.308;2023-02-10T14:20:24;13.43;;;3.83;;
52396;SDS011;38322;53.108;6.308;2023-02-10T14:22:55;21.88;;;4.38;;
52396;SDS011;38322;53.108;6.308;2023-02-10T14:25:27;13.50;;;4.68;;
52396;SDS011;38322;53.108;6.308;2023-02-10T14:28:00;18.80;;;5.40;;
52396;SDS011;38322;53.108;6.308;2023-02-10T14:30:32;15.93;;;4.22;;
52396;SDS011;38322;53.108;6.308;2023-02-10T14:32:59;15.10;;;4.55;;
52396;SDS011;38322;53.108;6.308;2023-02-10T14:35:26;15.13;;;4.47;;
52396;SDS011;38322;53.108;6.308;2023-02-10T14:37:53;12.38;;;5.30;;
52396;SDS011;38322;53.108;6.308;2023-02-10T14:40:23;14.52;;;5.50;;
52396;SDS011;38322;53.108;6.308;2023-02-10T14:42:51;11.35;;;4.90;;
52396;SDS011;38322;53.108;6.308;2023-02-10T14:45:18;14.30;;;5.53;;
52396;SDS011;38322;53.108;6.308;2023-02-10T14:47:52;9.35;;;4.95;;
52396;SDS011;38322;53.108;6.308;2023-02-10T14:50:22;20.40;;;4.57;;
52396;SDS011;38322;53.108;6.308;2023-02-10T14:52:51;10.20;;;5.78;;
52396;SDS011;38322;53.108;6.308;2023-02-10T14:55:25;15.43;;;5.50;;
52396;SDS011;38322;53.108;6.308;2023-02-10T14:57:51;14.68;;;5.40;;
52396;SDS011;38322;53.108;6.308;2023-02-10T15:00:20;9.70;;;5.80;;
52396;SDS011;38322;53.108;6.308;2023-02-10T15:02:56;23.83;;;5.38;;
52396;SDS011;38322;53.108;6.308;2023-02-10T15:05:24;18.67;;;5.60;;
52396;SDS011;38322;53.108;6.308;2023-02-10T15:07:54;24.08;;;6.13;;
52396;SDS011;38322;53.108;6.308;2023-02-10T15:10:28;14.02;;;4.63;;
52396;SDS011;38322;53.108;6.308;2023-02-10T15:12:58;17.15;;;5.97;;
52396;SDS011;38322;53.108;6.308;2023-02-10T15:15:27;20.65;;;8.80;;
52396;SDS011;38322;53.108;6.308;2023-02-10T15:18:00;11.95;;;6.63;;
52396;SDS011;38322;53.108;6.308;2023-02-10T15:20:37;19.90;;;7.15;;
52396;SDS011;38322;53.108;6.308;2023-02-10T15:23:05;20.20;;;6.43;;
52396;SDS011;38322;53.108;6.308;2023-02-10T15:25:40;15.05;;;7.03;;
52396;SDS011;38322;53.108;6.308;2023-02-10T15:30:47;16.05;;;5.82;;
52396;SDS011;38322;53.108;6.308;2023-02-10T15:33:18;16.85;;;6.70;;
52396;SDS011;38322;53.108;6.308;2023-02-10T15:35:52;20.77;;;6.40;;
52396;SDS011;38322;53.108;6.308;2023-02-10T15:38:28;13.70;;;5.78;;
52396;SDS011;38322;53.108;6.308;2023-02-10T15:40:55;14.13;;;6.85;;
52396;SDS011;38322;53.108;6.308;2023-02-10T15:43:23;16.45;;;5.95;;
52396;SDS011;38322;53.108;6.308;2023-02-10T15:46:05;20.52;;;6.03;;
52396;SDS011;38322;53.108;6.308;2023-02-10T15:48:39;22.08;;;6.82;;
52396;SDS011;38322;53.108;6.308;2023-02-10T15:51:04;15.77;;;6.88;;
52396;SDS011;38322;53.108;6.308;2023-02-10T15:53:33;18.60;;;6.95;;
52396;SDS011;38322;53.108;6.308;2023-02-10T15:55:59;18.73;;;5.80;;
52396;SDS011;38322;53.108;6.308;2023-02-10T15:58:25;17.98;;;7.95;;
52396;SDS011;38322;53.108;6.308;2023-02-10T16:00:51;13.27;;;6.25;;
52396;SDS011;38322;53.108;6.308;2023-02-10T16:03:17;21.52;;;7.07;;
52396;SDS011;38322;53.108;6.308;2023-02-10T16:05:43;18.25;;;6.18;;
52396;SDS011;38322;53.108;6.308;2023-02-10T16:08:18;13.40;;;7.47;;
52396;SDS011;38322;53.108;6.308;2023-02-10T16:10:45;13.00;;;6.20;;
52396;SDS011;38322;53.108;6.308;2023-02-10T16:13:12;11.63;;;6.82;;
52396;SDS011;38322;53.108;6.308;2023-02-10T16:15:39;18.88;;;6.78;;
52396;SDS011;38322;53.108;6.308;2023-02-10T16:18:08;19.17;;;8.00;;
52396;SDS011;38322;53.108;6.308;2023-02-10T16:20:38;16.10;;;8.10;;
52396;SDS011;38322;53.108;6.308;2023-02-10T16:23:09;15.02;;;7.80;;
52396;SDS011;38322;53.108;6.308;2023-02-10T16:28:03;17.45;;;7.13;;
52396;SDS011;38322;53.108;6.308;2023-02-10T16:30:29;20.92;;;8.50;;
52396;SDS011;38322;53.108;6.308;2023-02-10T16:32:57;15.02;;;6.75;;
52396;SDS011;38322;53.108;6.308;2023-02-10T16:35:24;23.08;;;8.32;;
52396;SDS011;38322;53.108;6.308;2023-02-10T16:37:51;21.33;;;8.93;;
52396;SDS011;38322;53.108;6.308;2023-02-10T16:40:21;16.77;;;8.10;;
52396;SDS011;38322;53.108;6.308;2023-02-10T16:42:49;14.00;;;7.75;;
52396;SDS011;38322;53.108;6.308;2023-02-10T16:45:15;29.50;;;10.65;;
52396;SDS011;38322;53.108;6.308;2023-02-10T16:47:41;16.55;;;7.53;;
52396;SDS011;38322;53.108;6.308;2023-02-10T16:50:09;17.23;;;8.40;;
52396;SDS011;38322;53.108;6.308;2023-02-10T16:52:55;23.25;;;8.35;;
52396;SDS011;38322;53.108;6.308;2023-02-10T16:55:22;13.80;;;6.63;;
52396;SDS011;38322;53.108;6.308;2023-02-10T16:57:48;27.15;;;7.60;;
52396;SDS011;38322;53.108;6.308;2023-02-10T17:00:14;18.65;;;7.07;;
52396;SDS011;38322;53.108;6.308;2023-02-10T17:02:41;23.73;;;8.32;;
52396;SDS011;38322;53.108;6.308;2023-02-10T17:05:08;18.48;;;7.43;;
52396;SDS011;38322;53.108;6.308;2023-02-10T17:07:35;13.90;;;8.23;;
52396;SDS011;38322;53.108;6.308;2023-02-10T17:10:02;19.25;;;9.63;;
52396;SDS011;38322;53.108;6.308;2023-02-10T17:12:29;18.42;;;7.28;;
52396;SDS011;38322;53.108;6.308;2023-02-10T17:14:55;15.25;;;6.30;;
52396;SDS011;38322;53.108;6.308;2023-02-10T17:17:21;16.70;;;7.82;;
52396;SDS011;38322;53.108;6.308;2023-02-10T17:19:47;18.42;;;7.30;;
52396;SDS011;38322;53.108;6.308;2023-02-10T17:22:12;25.17;;;9.73;;
52396;SDS011;38322;53.108;6.308;2023-02-10T17:24:38;19.63;;;7.85;;
52396;SDS011;38322;53.108;6.308;2023-02-10T17:27:04;20.92;;;7.55;;
52396;SDS011;38322;53.108;6.308;2023-02-10T17:29:30;17.95;;;7.88;;
52396;SDS011;38322;53.108;6.308;2023-02-10T17:31:56;22.40;;;9.93;;
52396;SDS011;38322;53.108;6.308;2023-02-10T17:34:22;18.10;;;8.35;;
52396;SDS011;38322;53.108;6.308;2023-02-10T17:36:48;17.13;;;8.85;;
52396;SDS011;38322;53.108;6.308;2023-02-10T17:39:15;12.98;;;9.90;;
52396;SDS011;38322;53.108;6.308;2023-02-10T17:41:54;25.20;;;11.45;;
52396;SDS011;38322;53.108;6.308;2023-02-10T17:44:22;22.17;;;10.80;;
52396;SDS011;38322;53.108;6.308;2023-02-10T17:46:48;22.92;;;11.85;;
52396;SDS011;38322;53.108;6.308;2023-02-10T17:49:19;19.08;;;11.68;;
52396;SDS011;38322;53.108;6.308;2023-02-10T17:51:46;18.30;;;9.75;;
52396;SDS011;38322;53.108;6.308;2023-02-10T17:54:13;18.23;;;9.40;;
52396;SDS011;38322;53.108;6.308;2023-02-10T17:56:41;17.90;;;10.75;;
52396;SDS011;38322;53.108;6.308;2023-02-10T17:59:07;21.60;;;10.40;;
52396;SDS011;38322;53.108;6.308;2023-02-10T18:01:33;17.42;;;12.52;;
52396;SDS011;38322;53.108;6.308;2023-02-10T18:03:59;22.60;;;11.15;;
52396;SDS011;38322;53.108;6.308;2023-02-10T18:06:26;24.40;;;10.88;;
52396;SDS011;38322;53.108;6.308;2023-02-10T18:08:53;21.33;;;11.77;;
52396;SDS011;38322;53.108;6.308;2023-02-10T18:11:20;25.13;;;12.27;;
52396;SDS011;38322;53.108;6.308;2023-02-10T18:13:47;22.95;;;11.48;;
52396;SDS011;38322;53.108;6.308;2023-02-10T18:16:13;21.27;;;12.60;;
52396;SDS011;38322;53.108;6.308;2023-02-10T18:18:41;25.67;;;11.80;;
52396;SDS011;38322;53.108;6.308;2023-02-10T18:21:13;26.40;;;12.95;;
52396;SDS011;38322;53.108;6.308;2023-02-10T18:23:41;26.73;;;12.75;;
52396;SDS011;38322;53.108;6.308;2023-02-10T18:26:07;25.65;;;14.05;;
52396;SDS011;38322;53.108;6.308;2023-02-10T18:28:33;24.08;;;14.63;;
52396;SDS011;38322;53.108;6.308;2023-02-10T18:31:00;28.42;;;15.55;;
52396;SDS011;38322;53.108;6.308;2023-02-10T18:33:26;26.15;;;12.77;;
52396;SDS011;38322;53.108;6.308;2023-02-10T18:35:53;26.67;;;14.50;;
52396;SDS011;38322;53.108;6.308;2023-02-10T18:38:19;29.00;;;15.38;;
52396;SDS011;38322;53.108;6.308;2023-02-10T18:40:46;33.90;;;14.50;;
52396;SDS011;38322;53.108;6.308;2023-02-10T18:43:18;21.92;;;12.60;;
52396;SDS011;38322;53.108;6.308;2023-02-10T18:45:46;31.17;;;15.07;;
52396;SDS011;38322;53.108;6.308;2023-02-10T18:48:12;27.55;;;14.15;;
52396;SDS011;38322;53.108;6.308;2023-02-10T18:50:39;24.35;;;13.18;;
52396;SDS011;38322;53.108;6.308;2023-02-10T18:53:05;31.35;;;14.13;;
52396;SDS011;38322;53.108;6.308;2023-02-10T18:55:31;31.85;;;13.50;;
52396;SDS011;38322;53.108;6.308;2023-02-10T18:57:58;26.45;;;13.07;;
52396;SDS011;38322;53.108;6.308;2023-02-10T19:00:27;22.08;;;14.55;;
52396;SDS011;38322;53.108;6.308;2023-02-10T19:02:55;40.25;;;16.25;;
52396;SDS011;38322;53.108;6.308;2023-02-10T19:05:21;25.13;;;14.10;;
52396;SDS011;38322;53.108;6.308;2023-02-10T19:07:46;26.00;;;13.45;;
52396;SDS011;38322;53.108;6.308;2023-02-10T19:10:12;34.10;;;14.43;;
52396;SDS011;38322;53.108;6.308;2023-02-10T19:12:38;25.85;;;11.82;;
52396;SDS011;38322;53.108;6.308;2023-02-10T19:15:04;30.75;;;13.60;;
52396;SDS011;38322;53.108;6.308;2023-02-10T19:17:30;21.92;;;12.25;;
52396;SDS011;38322;53.108;6.308;2023-02-10T19:19:56;30.63;;;12.82;;
52396;SDS011;38322;53.108;6.308;2023-02-10T19:22:22;25.92;;;12.55;;
52396;SDS011;38322;53.108;6.308;2023-02-10T19:24:48;28.42;;;14.63;;
52396;SDS011;38322;53.108;6.308;2023-02-10T19:27:14;20.17;;;10.27;;
52396;SDS011;38322;53.108;6.308;2023-02-10T19:29:40;24.30;;;11.70;;
52396;SDS011;38322;53.108;6.308;2023-02-10T19:32:05;31.52;;;13.50;;
52396;SDS011;38322;53.108;6.308;2023-02-10T19:34:31;25.88;;;10.77;;
52396;SDS011;38322;53.108;6.308;2023-02-10T19:36:57;23.85;;;10.43;;
52396;SDS011;38322;53.108;6.308;2023-02-10T19:39:24;20.85;;;9.27;;
52396;SDS011;38322;53.108;6.308;2023-02-10T19:41:50;17.80;;;7.90;;
52396;SDS011;38322;53.108;6.308;2023-02-10T19:44:18;23.02;;;9.70;;
52396;SDS011;38322;53.108;6.308;2023-02-10T19:46:46;22.98;;;10.10;;
52396;SDS011;38322;53.108;6.308;2023-02-10T19:49:12;25.70;;;8.80;;
52396;SDS011;38322;53.108;6.308;2023-02-10T19:51:39;22.95;;;9.27;;
52396;SDS011;38322;53.108;6.308;2023-02-10T19:54:09;22.02;;;7.28;;
52396;SDS011;38322;53.108;6.308;2023-02-10T19:56:36;17.80;;;6.78;;
52396;SDS011;38322;53.108;6.308;2023-02-10T19:59:04;20.10;;;6.90;;
52396;SDS011;38322;53.108;6.308;2023-02-10T20:01:31;19.15;;;7.13;;
52396;SDS011;38322;53.108;6.308;2023-02-10T20:03:57;13.82;;;6.63;;
52396;SDS011;38322;53.108;6.308;2023-02-10T20:06:25;24.70;;;7.53;;
52396;SDS011;38322;53.108;6.308;2023-02-10T20:08:53;31.30;;;7.78;;
52396;SDS011;38322;53.108;6.308;2023-02-10T20:11:19;16.98;;;7.75;;
52396;SDS011;38322;53.108;6.308;2023-02-10T20:13:45;20.88;;;7.57;;
52396;SDS011;38322;53.108;6.308;2023-02-10T20:16:11;23.80;;;7.95;;
52396;SDS011;38322;53.108;6.308;2023-02-10T20:18:38;20.10;;;6.82;;
52396;SDS011;38322;53.108;6.308;2023-02-10T20:21:04;17.80;;;6.75;;
52396;SDS011;38322;53.108;6.308;2023-02-10T20:23:32;19.45;;;6.50;;
52396;SDS011;38322;53.108;6.308;2023-02-10T20:26:00;18.20;;;6.43;;
52396;SDS011;38322;53.108;6.308;2023-02-10T20:28:27;17.05;;;6.88;;
52396;SDS011;38322;53.108;6.308;2023-02-10T20:30:54;17.48;;;7.03;;
52396;SDS011;38322;53.108;6.308;2023-02-10T20:33:22;21.45;;;6.18;;
52396;SDS011;38322;53.108;6.308;2023-02-10T20:35:48;21.02;;;6.50;;
52396;SDS011;38322;53.108;6.308;2023-02-10T20:38:20;21.02;;;7.82;;
52396;SDS011;38322;53.108;6.308;2023-02-10T20:40:46;23.85;;;7.35;;
52396;SDS011;38322;53.108;6.308;2023-02-10T20:43:12;21.10;;;7.53;;
52396;SDS011;38322;53.108;6.308;2023-02-10T20:45:38;23.75;;;6.55;;
52396;SDS011;38322;53.108;6.308;2023-02-10T20:48:04;18.95;;;6.60;;
52396;SDS011;38322;53.108;6.308;2023-02-10T20:50:30;20.20;;;7.28;;
52396;SDS011;38322;53.108;6.308;2023-02-10T20:52:56;28.50;;;8.00;;
52396;SDS011;38322;53.108;6.308;2023-02-10T20:55:21;28.23;;;8.13;;
52396;SDS011;38322;53.108;6.308;2023-02-10T20:57:47;20.80;;;7.40;;
